Главная страница
METAR-TAF:

METAR-TAF

Аэропорты :

Екатеринбург, Россия

Кольцово

широта: 56-50N, долгота: 060-38E, высота над уровнем моря: 237 м

Текущие метеонаблюдения

Эта сводка был подготовлена 49 минут назад, в 11:30 UTC
Ветер 8 Узел от юго-юго-восточный
Температура -6°C
Влажность 68%
Давление 1035 hPa
Видимость 10 км и более
Нет облачности ниже 1500 м, и нет кучево-дождевой облачности

METAR: USSS 151130Z 15004MPS CAVOK M06/M11 Q1035 R26R/290040 NOSIG RMK QFE755/1007

Время: 17:19 (12:19 UTC)

Прогноз

Эта сводка был подготовлена 1 час и 24 минут назад, в 10:55 UTC
Прогноз действительный с 15-го 12 UTC до 16-го 12 UTC
Ветер 6 Узел от юго-юго-восточный
Видимость 10 км и более
Отдельные облака на высоте 4000 фута
изменения
С 15-го 15 UTC до 15-го 16 UTC
Видимость: 4000 м
дымка, дым

TAF: USSS 151055Z 1512/1612 15003MPS 9999 SCT040 BECMG 1515/1516 4000 BR FU

Метеонаблюдения и прогнозы для более 4000 аэропортов (сводки METAR и TAF).

Имеющиеся станции представлены на карте желтыми и красными точками.

Чтобы увидеть название станции, наведите на нее мышь.

Затем щелкните, чтобы увидеть метеонаблюдения и метеопрогнозы.

Управление картой: чтобы увеличить масштаб, щелкните зеленые кнопки с черным крестиком; чтобы уменьшить масштаб, щелкните зеленую кнопку с тире; для просмотра соседних карт щелкайте зеленые стрелки.


METAR-TAF: